createdAt,value
2022-08-26T00:01:54.331Z,6.67
2022-08-26T00:04:23.447Z,7.13
2022-08-26T00:06:51.389Z,6.70
2022-08-26T00:09:19.279Z,7.13
2022-08-26T00:11:47.557Z,7.17
2022-08-26T00:14:16.418Z,6.03
2022-08-26T00:16:48.016Z,6.10
2022-08-26T00:19:17.105Z,6.60
2022-08-26T00:21:44.968Z,6.63
2022-08-26T00:24:13.287Z,7.17
2022-08-26T00:26:41.920Z,6.80
2022-08-26T00:29:10.680Z,6.70
2022-08-26T00:31:38.416Z,6.47
2022-08-26T00:34:09.314Z,6.37
2022-08-26T00:36:37.477Z,6.50
2022-08-26T00:39:08.126Z,6.70
2022-08-26T00:41:36.503Z,6.93
2022-08-26T00:44:05.542Z,6.83
2022-08-26T00:46:37.815Z,6.50
2022-08-26T00:49:11.841Z,5.63
2022-08-26T00:51:47.310Z,5.50
2022-08-26T00:54:17.297Z,5.90
2022-08-26T00:56:50.462Z,5.73
2022-08-26T00:59:20.063Z,6.50
2022-08-26T01:01:48.201Z,6.10
2022-08-26T01:04:21.255Z,6.17
2022-08-26T01:06:51.312Z,6.17
2022-08-26T01:09:20.182Z,5.77
2022-08-26T01:11:50.498Z,6.10
2022-08-26T01:14:20.296Z,6.83
2022-08-26T01:16:49.366Z,6.80
2022-08-26T01:19:22.751Z,7.23
2022-08-26T01:21:56.347Z,7.00
2022-08-26T01:24:28.123Z,6.43
2022-08-26T01:26:59.134Z,6.73
2022-08-26T01:29:27.299Z,6.87
2022-08-26T01:31:57.501Z,7.10
2022-08-26T01:34:28.750Z,6.67
2022-08-26T01:37:02.491Z,6.97
2022-08-26T01:39:32.594Z,7.07
2022-08-26T01:42:03.163Z,6.80
2022-08-26T01:44:36.213Z,6.83
2022-08-26T01:47:06.432Z,7.13
2022-08-26T01:49:36.688Z,6.83
2022-08-26T01:52:08.612Z,6.90
2022-08-26T01:54:39.968Z,6.90
2022-08-26T01:57:08.292Z,6.87
2022-08-26T01:59:36.361Z,6.50
2022-08-26T02:02:04.188Z,6.50
2022-08-26T02:04:37.509Z,6.80
2022-08-26T02:07:07.726Z,6.90
2022-08-26T02:09:41.254Z,7.00
2022-08-26T02:12:11.733Z,7.13
2022-08-26T02:14:43.998Z,7.33
2022-08-26T02:17:12.982Z,7.33
2022-08-26T02:19:46.486Z,7.30
2022-08-26T02:22:19.922Z,6.50
2022-08-26T02:24:52.910Z,6.90
2022-08-26T02:27:24.932Z,7.87
2022-08-26T02:29:59.389Z,7.00
2022-08-26T02:32:29.065Z,7.37
2022-08-26T02:34:56.718Z,7.00
2022-08-26T02:37:24.433Z,6.47
2022-08-26T02:39:54.545Z,7.63
2022-08-26T02:42:22.389Z,7.13
2022-08-26T02:44:50.595Z,6.87
2022-08-26T02:47:18.457Z,7.40
2022-08-26T02:49:47.194Z,7.10
2022-08-26T02:52:15.630Z,6.47
2022-08-26T02:54:43.814Z,6.90
2022-08-26T02:57:15.185Z,7.27
2022-08-26T02:59:43.095Z,7.40
2022-08-26T03:02:12.397Z,7.57
2022-08-26T03:04:41.332Z,7.83
2022-08-26T03:07:25.990Z,6.67
2022-08-26T03:09:53.964Z,7.07
2022-08-26T03:12:23.259Z,7.10
2022-08-26T03:14:51.578Z,7.10
2022-08-26T03:17:21.068Z,7.73
2022-08-26T03:19:54.252Z,6.87
2022-08-26T03:22:26.070Z,6.80
2022-08-26T03:24:55.100Z,7.80
2022-08-26T03:27:24.302Z,7.67
2022-08-26T03:30:11.832Z,7.50
2022-08-26T03:32:41.566Z,7.33
2022-08-26T03:35:10.011Z,7.10
2022-08-26T03:37:37.889Z,6.90
2022-08-26T03:40:08.198Z,8.10
2022-08-26T03:42:38.898Z,7.10
2022-08-26T03:45:10.441Z,6.93
2022-08-26T03:47:38.142Z,7.20
2022-08-26T03:50:07.337Z,7.33
2022-08-26T03:52:35.421Z,6.43
2022-08-26T03:55:06.868Z,7.43
2022-08-26T03:57:34.547Z,7.50
2022-08-26T04:00:06.302Z,7.50
2022-08-26T04:02:34.095Z,7.40
2022-08-26T04:05:02.521Z,7.37
2022-08-26T04:07:32.053Z,7.03
2022-08-26T04:10:03.173Z,7.23
2022-08-26T04:12:30.945Z,8.13
2022-08-26T04:14:59.070Z,7.70
2022-08-26T04:17:29.599Z,7.20
2022-08-26T04:19:57.556Z,6.93
2022-08-26T04:22:25.350Z,7.63
2022-08-26T04:24:53.271Z,8.40
2022-08-26T04:27:21.017Z,7.50
2022-08-26T04:29:52.449Z,8.17
2022-08-26T04:32:22.817Z,7.53
2022-08-26T04:34:51.878Z,7.20
2022-08-26T04:37:19.585Z,7.47
2022-08-26T04:39:51.197Z,7.43
2022-08-26T04:42:22.789Z,7.33
2022-08-26T04:44:55.350Z,7.70
2022-08-26T04:47:23.082Z,7.80
2022-08-26T04:49:56.303Z,7.57
2022-08-26T04:52:29.190Z,7.47
2022-08-26T04:55:00.617Z,8.00
2022-08-26T04:57:28.619Z,7.20
2022-08-26T04:59:56.523Z,7.47
2022-08-26T05:02:25.098Z,7.10
2022-08-26T05:04:54.238Z,7.50
2022-08-26T05:07:21.944Z,7.50
2022-08-26T05:09:50.184Z,7.97
2022-08-26T05:12:18.076Z,7.87
2022-08-26T05:14:46.713Z,7.20
2022-08-26T05:17:15.077Z,7.80
2022-08-26T05:19:44.517Z,8.03
2022-08-26T05:22:13.854Z,7.90
2022-08-26T05:24:43.222Z,8.37
2022-08-26T05:27:11.969Z,8.57
2022-08-26T05:29:40.555Z,7.70
2022-08-26T05:32:08.531Z,7.53
2022-08-26T05:34:39.085Z,7.90
2022-08-26T05:37:07.040Z,8.40
2022-08-26T05:39:36.612Z,8.63
2022-08-26T05:42:05.731Z,7.80
2022-08-26T05:44:53.591Z,7.20
2022-08-26T05:47:21.271Z,8.10
2022-08-26T05:49:51.863Z,7.63
2022-08-26T05:52:20.023Z,7.83
2022-08-26T05:54:49.333Z,8.10
2022-08-26T05:57:17.432Z,8.40
2022-08-26T05:59:46.320Z,8.00
2022-08-26T06:02:14.090Z,8.20
2022-08-26T06:04:42.099Z,7.20
2022-08-26T06:07:12.029Z,8.43
2022-08-26T06:09:41.456Z,8.67
2022-08-26T06:12:11.160Z,8.43
2022-08-26T06:14:38.926Z,7.87
2022-08-26T06:17:09.618Z,7.47
2022-08-26T06:19:37.476Z,8.53
2022-08-26T06:22:29.082Z,7.13
2022-08-26T06:25:14.073Z,8.60
2022-08-26T06:27:43.104Z,7.93
2022-08-26T06:30:12.645Z,8.10
2022-08-26T06:32:40.315Z,8.57
2022-08-26T06:35:11.860Z,8.33
2022-08-26T06:37:40.398Z,8.93
2022-08-26T06:40:09.805Z,7.80
2022-08-26T06:42:39.261Z,8.07
2022-08-26T06:45:09.477Z,8.10
2022-08-26T06:47:38.970Z,8.10
2022-08-26T06:50:07.784Z,8.30
2022-08-26T06:52:35.455Z,8.17
2022-08-26T06:55:03.436Z,8.43
2022-08-26T06:57:32.863Z,8.00
2022-08-26T07:00:02.990Z,8.03
2022-08-26T07:02:33.199Z,8.50
2022-08-26T07:05:02.957Z,7.70
2022-08-26T07:07:30.725Z,8.30
2022-08-26T07:09:58.407Z,8.50
2022-08-26T07:12:26.524Z,8.37
2022-08-26T07:14:54.363Z,8.23
2022-08-26T07:17:24.969Z,8.80
2022-08-26T07:19:54.624Z,8.40
2022-08-26T07:22:22.356Z,8.47
2022-08-26T07:24:52.214Z,8.20
2022-08-26T07:27:19.986Z,8.00
2022-08-26T07:29:48.709Z,7.90
2022-08-26T07:32:18.235Z,7.40
2022-08-26T07:34:46.972Z,8.00
2022-08-26T07:37:17.509Z,8.00
2022-08-26T07:39:46.042Z,7.93
2022-08-26T07:42:18.527Z,8.10
2022-08-26T07:44:46.418Z,7.43
2022-08-26T07:47:24.666Z,8.20
2022-08-26T07:49:55.216Z,8.10
2022-08-26T07:52:27.003Z,7.00
2022-08-26T07:54:55.874Z,7.70
2022-08-26T07:57:24.253Z,8.57
2022-08-26T07:59:52.258Z,7.10
2022-08-26T08:02:23.011Z,8.80
2022-08-26T08:04:51.694Z,8.83
2022-08-26T08:07:19.665Z,8.30
2022-08-26T08:09:50.046Z,7.87
2022-08-26T08:12:18.080Z,7.83
2022-08-26T08:14:46.870Z,8.10
2022-08-26T08:17:16.366Z,7.80
2022-08-26T08:19:44.638Z,7.07
2022-08-26T08:22:17.220Z,7.30
2022-08-26T08:24:49.992Z,7.47
2022-08-26T08:27:23.854Z,7.50
2022-08-26T08:29:54.271Z,7.00
2022-08-26T08:32:22.881Z,6.80
2022-08-26T08:34:51.090Z,7.37
2022-08-26T08:37:19.530Z,8.00
2022-08-26T08:39:47.353Z,6.70
2022-08-26T08:42:44.556Z,5.83
2022-08-26T08:45:16.878Z,6.20
2022-08-26T08:47:51.422Z,6.00
2022-08-26T08:50:28.122Z,6.00
2022-08-26T08:53:04.139Z,6.57
2022-08-26T08:55:46.234Z,6.20
2022-08-26T08:58:20.540Z,6.20
2022-08-26T09:00:52.533Z,6.70
2022-08-26T09:03:36.254Z,6.60
2022-08-26T09:06:16.864Z,6.90
2022-08-26T09:08:46.974Z,6.87
2022-08-26T09:11:20.005Z,6.80
2022-08-26T09:13:52.979Z,6.37
2022-08-26T09:16:25.169Z,6.80
2022-08-26T09:19:03.825Z,6.87
2022-08-26T09:21:32.609Z,6.43
2022-08-26T09:24:01.019Z,6.30
2022-08-26T09:26:31.600Z,6.73
2022-08-26T09:29:02.351Z,7.00
2022-08-26T09:31:32.427Z,6.80
2022-08-26T09:34:17.780Z,6.10
2022-08-26T09:36:48.563Z,6.90
2022-08-26T09:39:29.075Z,6.83
2022-08-26T09:42:06.665Z,8.60
2022-08-26T09:44:53.151Z,8.20
2022-08-26T09:47:26.759Z,5.80
2022-08-26T09:50:00.280Z,6.73
2022-08-26T09:52:28.210Z,6.53
2022-08-26T09:55:03.445Z,6.33
2022-08-26T09:57:34.268Z,6.03
2022-08-26T10:00:23.983Z,7.50
2022-08-26T10:02:54.903Z,6.83
2022-08-26T10:05:33.097Z,6.50
2022-08-26T10:08:02.209Z,6.70
2022-08-26T10:10:34.762Z,6.60
2022-08-26T10:13:09.039Z,7.37
2022-08-26T10:15:50.075Z,7.63
2022-08-26T10:18:22.938Z,6.07
2022-08-26T10:20:58.735Z,6.90
2022-08-26T10:23:32.448Z,6.93
2022-08-26T10:26:06.980Z,7.07
2022-08-26T10:28:41.186Z,7.03
2022-08-26T10:31:28.495Z,7.43
2022-08-26T10:34:00.415Z,7.83
2022-08-26T10:37:15.543Z,7.20
2022-08-26T10:39:46.232Z,7.57
2022-08-26T10:42:21.203Z,7.60
2022-08-26T10:44:53.051Z,7.37
2022-08-26T10:47:27.170Z,7.90
2022-08-26T10:50:00.439Z,7.30
2022-08-26T10:52:40.703Z,7.27
2022-08-26T10:55:17.826Z,7.77
2022-08-26T10:57:56.068Z,7.10
2022-08-26T11:00:48.513Z,6.07
2022-08-26T11:03:31.502Z,7.20
2022-08-26T11:06:23.861Z,7.77
2022-08-26T11:08:53.523Z,7.03
2022-08-26T11:11:45.292Z,6.33
2022-08-26T11:14:53.602Z,6.20
2022-08-26T11:18:00.358Z,6.43
2022-08-26T11:20:39.119Z,6.37
2022-08-26T11:23:38.403Z,6.67
2022-08-26T11:26:27.471Z,6.67
2022-08-26T11:29:13.104Z,5.73
2022-08-26T11:31:56.741Z,6.33
2022-08-26T11:34:52.379Z,6.10
2022-08-26T11:37:25.770Z,6.50
2022-08-26T11:39:57.181Z,7.13
2022-08-26T11:42:33.215Z,7.27
2022-08-26T11:45:05.506Z,6.70
2022-08-26T11:47:33.890Z,6.67
2022-08-26T11:50:10.811Z,7.00
2022-08-26T11:52:40.093Z,7.23
2022-08-26T11:55:11.991Z,7.20
2022-08-26T11:57:45.417Z,7.57
2022-08-26T12:00:22.202Z,7.60
2022-08-26T12:02:52.619Z,7.70
2022-08-26T12:05:25.504Z,7.70
2022-08-26T12:08:02.370Z,6.53
2022-08-26T12:10:33.531Z,6.60
2022-08-26T12:13:03.517Z,6.23
2022-08-26T12:15:33.036Z,6.77
2022-08-26T12:18:20.713Z,6.20
2022-08-26T12:20:59.830Z,6.23
2022-08-26T12:23:40.097Z,6.80
2022-08-26T12:26:11.475Z,7.13
2022-08-26T12:28:47.452Z,6.10
2022-08-26T12:31:24.051Z,7.10
2022-08-26T12:33:53.133Z,6.33
2022-08-26T12:36:27.423Z,6.00
2022-08-26T12:38:58.606Z,7.00
2022-08-26T12:41:41.858Z,7.23
2022-08-26T12:44:09.820Z,7.27
2022-08-26T12:46:37.601Z,7.67
2022-08-26T12:49:05.384Z,7.80
2022-08-26T12:51:35.233Z,7.57
2022-08-26T12:54:06.772Z,7.07
2022-08-26T12:56:38.097Z,7.60
2022-08-26T12:59:12.207Z,6.93
2022-08-26T13:01:44.053Z,6.77
2022-08-26T13:04:35.112Z,7.50
2022-08-26T13:07:20.083Z,6.70
2022-08-26T13:09:50.220Z,7.00
2022-08-26T13:12:26.057Z,7.53
2022-08-26T13:14:54.038Z,7.90
2022-08-26T13:17:22.010Z,7.93
2022-08-26T13:19:49.733Z,7.53
2022-08-26T13:22:22.935Z,8.13
2022-08-26T13:24:55.267Z,7.67
2022-08-26T13:27:26.138Z,7.93
2022-08-26T13:29:54.730Z,8.10
2022-08-26T13:32:27.458Z,8.17
2022-08-26T13:34:57.295Z,8.37
2022-08-26T13:37:35.149Z,8.53
2022-08-26T13:40:06.794Z,7.10
2022-08-26T13:42:34.713Z,8.80
2022-08-26T13:45:02.772Z,8.40
2022-08-26T13:47:30.687Z,7.77
2022-08-26T13:49:58.458Z,7.70
2022-08-26T13:52:30.552Z,8.30
2022-08-26T13:54:59.094Z,8.00
2022-08-26T13:57:29.944Z,6.70
2022-08-26T13:59:59.007Z,7.33
2022-08-26T14:02:27.202Z,6.40
2022-08-26T14:04:55.354Z,7.00
2022-08-26T14:07:23.551Z,6.90
2022-08-26T14:09:51.244Z,7.67
2022-08-26T14:12:19.090Z,7.00
2022-08-26T14:14:48.163Z,6.43
2022-08-26T14:17:19.490Z,6.73
2022-08-26T14:19:50.222Z,6.97
2022-08-26T14:22:21.135Z,6.80
2022-08-26T14:24:50.111Z,6.77
2022-08-26T14:27:17.816Z,6.77
2022-08-26T14:29:45.600Z,7.17
2022-08-26T14:32:25.627Z,7.30
2022-08-26T14:34:53.512Z,6.80
2022-08-26T14:37:21.954Z,7.60
2022-08-26T14:39:49.790Z,7.50
2022-08-26T14:42:23.140Z,7.70
2022-08-26T14:44:55.983Z,7.00
2022-08-26T14:47:25.562Z,7.27
2022-08-26T14:49:53.306Z,7.80
2022-08-26T14:52:21.401Z,7.33
2022-08-26T14:54:48.133Z,7.23
2022-08-26T14:57:22.776Z,6.83
2022-08-26T14:59:50.633Z,7.97
2022-08-26T15:02:32.302Z,7.27
2022-08-26T15:05:03.953Z,7.20
2022-08-26T15:07:32.212Z,7.30
2022-08-26T15:09:59.981Z,8.03
2022-08-26T15:12:27.777Z,7.77
2022-08-26T15:14:55.475Z,6.90
2022-08-26T15:17:23.338Z,8.17
2022-08-26T15:19:51.643Z,7.50
2022-08-26T15:22:20.769Z,8.10
2022-08-26T15:24:51.836Z,7.60
2022-08-26T15:27:21.835Z,6.47
2022-08-26T15:29:49.605Z,7.30
2022-08-26T15:32:17.297Z,7.30
2022-08-26T15:34:45.285Z,6.90
2022-08-26T15:37:13.168Z,5.77
2022-08-26T15:39:42.451Z,6.47
2022-08-26T15:42:11.025Z,6.33
2022-08-26T15:44:43.232Z,6.30
2022-08-26T15:47:10.985Z,6.20
2022-08-26T15:49:38.693Z,6.97
2022-08-26T15:52:06.716Z,7.03
2022-08-26T15:54:35.217Z,6.20
2022-08-26T15:57:08.186Z,6.43
2022-08-26T15:59:38.609Z,6.50
2022-08-26T16:02:06.513Z,6.93
2022-08-26T16:04:34.306Z,6.17
2022-08-26T16:07:02.152Z,5.40
2022-08-26T16:09:30.723Z,5.40
2022-08-26T16:11:59.291Z,5.00
2022-08-26T16:14:28.418Z,5.10
2022-08-26T16:16:57.698Z,5.57
2022-08-26T16:19:25.611Z,4.73
2022-08-26T16:21:53.480Z,5.80
2022-08-26T16:24:24.874Z,5.30
2022-08-26T16:26:55.648Z,5.33
2022-08-26T16:29:24.473Z,5.40
2022-08-26T16:31:54.678Z,7.10
2022-08-26T16:34:22.831Z,6.83
2022-08-26T16:36:50.616Z,8.00
2022-08-26T16:39:18.428Z,6.83
2022-08-26T16:41:46.191Z,6.70
2022-08-26T16:44:14.026Z,6.50
2022-08-26T16:46:41.802Z,7.57
2022-08-26T16:49:11.232Z,8.13
2022-08-26T16:51:38.995Z,9.23
2022-08-26T16:54:08.545Z,8.50
2022-08-26T16:56:37.051Z,7.37
2022-08-26T16:59:06.274Z,7.20
2022-08-26T17:01:34.114Z,7.23
2022-08-26T17:04:01.914Z,7.57
2022-08-26T17:06:31.162Z,6.97
2022-08-26T17:08:58.962Z,7.27
2022-08-26T17:11:26.691Z,6.70
2022-08-26T17:13:54.472Z,5.83
2022-08-26T17:16:26.471Z,5.80
2022-08-26T17:18:56.037Z,5.20
2022-08-26T17:21:23.957Z,5.80
2022-08-26T17:23:53.411Z,5.60
2022-08-26T17:26:21.220Z,5.80
2022-08-26T17:28:50.487Z,5.30
2022-08-26T17:31:18.540Z,5.13
2022-08-26T17:33:50.270Z,5.37
2022-08-26T17:36:21.333Z,5.00
2022-08-26T17:38:50.283Z,5.27
2022-08-26T17:41:23.399Z,3.67
2022-08-26T17:43:51.360Z,4.67
2022-08-26T17:46:19.075Z,3.63
2022-08-26T17:48:47.177Z,3.80
2022-08-26T17:51:19.148Z,3.87
2022-08-26T17:53:47.820Z,3.23
2022-08-26T17:56:17.102Z,3.60
2022-08-26T17:58:51.201Z,2.80
2022-08-26T18:01:19.889Z,3.63
2022-08-26T18:03:47.857Z,3.83
2022-08-26T18:06:16.274Z,3.30
2022-08-26T18:08:44.851Z,3.93
2022-08-26T18:11:14.335Z,4.20
2022-08-26T18:13:47.171Z,5.13
2022-08-26T18:16:18.154Z,6.53
2022-08-26T18:18:47.515Z,6.80
2022-08-26T18:21:18.017Z,6.80
2022-08-26T18:23:46.914Z,7.13
2022-08-26T18:26:20.401Z,12.70
2022-08-26T18:28:50.635Z,7.50
2022-08-26T18:31:21.662Z,6.50
2022-08-26T18:33:51.048Z,7.77
2022-08-26T18:36:25.048Z,7.30
2022-08-26T18:38:56.827Z,8.80
2022-08-26T18:41:26.972Z,7.40
2022-08-26T18:43:57.107Z,9.50
2022-08-26T18:46:29.407Z,10.27
2022-08-26T18:49:02.006Z,9.30
2022-08-26T18:51:33.171Z,7.20
2022-08-26T18:54:04.756Z,9.40
2022-08-26T18:56:34.652Z,8.07
2022-08-26T18:59:02.916Z,8.37
2022-08-26T19:01:36.490Z,7.27
2022-08-26T19:04:07.782Z,7.10
2022-08-26T19:06:39.558Z,8.00
2022-08-26T19:09:12.033Z,7.93
2022-08-26T19:11:47.004Z,7.20
2022-08-26T19:14:19.691Z,7.93
2022-08-26T19:16:52.999Z,8.03
2022-08-26T19:19:24.407Z,6.90
2022-08-26T19:21:54.755Z,8.07
2022-08-26T19:24:23.167Z,7.57
2022-08-26T19:26:58.339Z,8.60
2022-08-26T19:29:28.433Z,8.37
2022-08-26T19:31:58.994Z,7.90
2022-08-26T19:34:27.915Z,7.97
2022-08-26T19:36:58.217Z,9.20
2022-08-26T19:39:26.824Z,7.87
2022-08-26T19:41:54.962Z,8.20
2022-08-26T19:44:42.158Z,7.90
2022-08-26T19:47:12.554Z,8.80
2022-08-26T19:49:40.281Z,8.73
2022-08-26T19:52:08.274Z,7.20
2022-08-26T19:54:36.578Z,9.20
2022-08-26T19:57:05.721Z,8.60
2022-08-26T19:59:35.391Z,8.30
2022-08-26T20:02:07.124Z,7.93
2022-08-26T20:04:40.767Z,7.80
2022-08-26T20:07:09.749Z,8.00
2022-08-26T20:09:38.317Z,8.33
2022-08-26T20:12:07.947Z,8.90
2022-08-26T20:14:36.716Z,8.87
2022-08-26T20:17:05.122Z,7.90
2022-08-26T20:20:05.138Z,9.00
2022-08-26T20:22:34.744Z,7.80
2022-08-26T20:25:02.923Z,8.30
2022-08-26T20:27:38.292Z,6.53
2022-08-26T20:30:08.924Z,7.80
2022-08-26T20:32:37.453Z,8.67
2022-08-26T20:35:07.258Z,9.30
2022-08-26T20:37:37.739Z,8.83
2022-08-26T20:40:08.382Z,8.80
2022-08-26T20:42:36.783Z,8.87
2022-08-26T20:45:06.038Z,8.53
2022-08-26T20:47:33.884Z,8.43
2022-08-26T20:50:04.039Z,8.43
2022-08-26T20:52:32.757Z,7.83
2022-08-26T20:55:02.480Z,9.10
2022-08-26T20:57:30.314Z,8.73
2022-08-26T20:59:58.072Z,8.97
2022-08-26T21:02:25.816Z,8.47
2022-08-26T21:04:53.675Z,8.40
2022-08-26T21:07:21.468Z,8.73
2022-08-26T21:09:50.129Z,9.00
2022-08-26T21:12:20.824Z,7.77
2022-08-26T21:14:49.792Z,8.63
2022-08-26T21:17:17.955Z,8.23
2022-08-26T21:19:45.766Z,8.13
2022-08-26T21:22:14.137Z,8.90
2022-08-26T21:24:41.904Z,7.80
2022-08-26T21:27:09.723Z,7.93
2022-08-26T21:29:38.786Z,9.10
2022-08-26T21:32:07.391Z,8.70
2022-08-26T21:34:35.265Z,8.57
2022-08-26T21:37:03.035Z,8.50
2022-08-26T21:39:36.792Z,8.70
2022-08-26T21:42:07.717Z,9.60
2022-08-26T21:44:35.513Z,8.00
2022-08-26T21:47:04.830Z,8.33
2022-08-26T21:49:32.681Z,8.07
2022-08-26T21:52:01.572Z,8.30
2022-08-26T21:54:29.349Z,7.90
2022-08-26T21:56:57.121Z,8.53
2022-08-26T21:59:25.366Z,8.93
2022-08-26T22:01:54.597Z,9.73
2022-08-26T22:04:24.326Z,8.67
2022-08-26T22:06:55.263Z,8.00
2022-08-26T22:09:25.882Z,8.43
2022-08-26T22:11:56.850Z,8.50
2022-08-26T22:14:30.505Z,8.93
2022-08-26T22:16:59.771Z,8.80
2022-08-26T22:19:29.830Z,8.90
2022-08-26T22:21:57.793Z,8.70
2022-08-26T22:24:27.342Z,8.40
2022-08-26T22:26:56.127Z,8.53
2022-08-26T22:29:25.632Z,10.10
2022-08-26T22:31:54.685Z,8.87
2022-08-26T22:34:23.216Z,9.37
2022-08-26T22:36:52.474Z,8.60
2022-08-26T22:39:23.451Z,9.00
2022-08-26T22:41:52.084Z,9.60
2022-08-26T22:44:22.031Z,10.07
2022-08-26T22:46:51.449Z,9.80
2022-08-26T22:49:19.616Z,9.37
2022-08-26T22:51:47.714Z,8.90
2022-08-26T22:54:17.538Z,9.40
2022-08-26T22:56:46.039Z,9.27
2022-08-26T22:59:16.115Z,10.13
2022-08-26T23:01:44.657Z,9.63
2022-08-26T23:04:12.846Z,10.57
2022-08-26T23:06:47.598Z,10.47
2022-08-26T23:09:18.433Z,10.90
2022-08-26T23:11:47.344Z,10.80
2022-08-26T23:14:15.590Z,11.17
2022-08-26T23:16:43.680Z,9.77
2022-08-26T23:19:13.234Z,10.20
2022-08-26T23:21:41.413Z,11.10
2022-08-26T23:24:09.983Z,10.57
2022-08-26T23:26:40.011Z,10.67
2022-08-26T23:29:09.622Z,11.60
2022-08-26T23:31:38.028Z,13.97
2022-08-26T23:34:23.734Z,15.07
2022-08-26T23:36:52.642Z,16.97
2022-08-26T23:39:21.741Z,18.47
2022-08-26T23:41:50.838Z,17.70
2022-08-26T23:44:19.645Z,17.93
2022-08-26T23:46:47.455Z,16.03
2022-08-26T23:49:15.215Z,20.03
2022-08-26T23:51:59.862Z,19.53
2022-08-26T23:54:27.667Z,20.47
2022-08-26T23:56:56.881Z,21.43
2022-08-26T23:59:24.693Z,21.00
